sensor_id;sensor_type;location;lat;lon;timestamp;pressure;altitude;pressure_sealevel;temperature
77223;BMP280;66218;48.928;9.140;2023-02-01T00:01:11;99177.41;;;7.28
77223;BMP280;66218;48.928;9.140;2023-02-01T00:03:37;99167.19;;;7.43
77223;BMP280;66218;48.928;9.140;2023-02-01T00:06:02;99167.19;;;7.43
77223;BMP280;66218;48.928;9.140;2023-02-01T00:08:28;99151.09;;;7.37
77223;BMP280;66218;48.928;9.140;2023-02-01T00:11:00;99142.06;;;7.34
77223;BMP280;66218;48.928;9.140;2023-02-01T00:13:31;99136.56;;;7.34
77223;BMP280;66218;48.928;9.140;2023-02-01T00:16:10;99135.16;;;7.33
77223;BMP280;66218;48.928;9.140;2023-02-01T00:18:37;99136.56;;;7.34
77223;BMP280;66218;48.928;9.140;2023-02-01T00:21:03;99135.63;;;7.30
77223;BMP280;66218;48.928;9.140;2023-02-01T00:23:28;99149.47;;;7.32
77223;BMP280;66218;48.928;9.140;2023-02-01T00:25:53;99155.94;;;7.25
77223;BMP280;66218;48.928;9.140;2023-02-01T00:28:19;99155.94;;;7.25
77223;BMP280;66218;48.928;9.140;2023-02-01T00:30:44;99155.84;;;7.23
77223;BMP280;66218;48.928;9.140;2023-02-01T00:33:09;99133.88;;;7.23
77223;BMP280;66218;48.928;9.140;2023-02-01T00:35:35;99137.13;;;7.19
77223;BMP280;66218;48.928;9.140;2023-02-01T00:38:00;99141.94;;;7.07
77223;BMP280;66218;48.928;9.140;2023-02-01T00:40:26;99139.06;;;7.17
77223;BMP280;66218;48.928;9.140;2023-02-01T00:42:51;99142.47;;;7.03
77223;BMP280;66218;48.928;9.140;2023-02-01T00:45:17;99108.22;;;7.04
77223;BMP280;66218;48.928;9.140;2023-02-01T00:47:43;99106.44;;;6.97
77223;BMP280;66218;48.928;9.140;2023-02-01T00:50:09;99100.16;;;6.95
77223;BMP280;66218;48.928;9.140;2023-02-01T00:52:34;99087.03;;;6.93
77223;BMP280;66218;48.928;9.140;2023-02-01T00:55:00;99080.81;;;6.93
77223;BMP280;66218;48.928;9.140;2023-02-01T00:57:25;99075.25;;;6.91
77223;BMP280;66218;48.928;9.140;2023-02-01T00:59:50;99080.59;;;6.89
77223;BMP280;66218;48.928;9.140;2023-02-01T01:02:15;99080.59;;;6.89
77223;BMP280;66218;48.928;9.140;2023-02-01T01:04:41;99069.56;;;6.75
77223;BMP280;66218;48.928;9.140;2023-02-01T01:07:06;99073.97;;;6.80
77223;BMP280;66218;48.928;9.140;2023-02-01T01:09:31;99073.97;;;6.80
77223;BMP280;66218;48.928;9.140;2023-02-01T01:11:57;99063.59;;;6.78
77223;BMP280;66218;48.928;9.140;2023-02-01T01:14:28;99079.06;;;6.86
77223;BMP280;66218;48.928;9.140;2023-02-01T01:16:53;99079.06;;;6.86
77223;BMP280;66218;48.928;9.140;2023-02-01T01:19:18;99074.69;;;6.80
77223;BMP280;66218;48.928;9.140;2023-02-01T01:21:43;99081.47;;;6.79
77223;BMP280;66218;48.928;9.140;2023-02-01T01:24:09;99091.97;;;6.83
77223;BMP280;66218;48.928;9.140;2023-02-01T01:26:34;99091.97;;;6.83
77223;BMP280;66218;48.928;9.140;2023-02-01T01:28:59;99087.91;;;6.84
77223;BMP280;66218;48.928;9.140;2023-02-01T01:31:25;99085.28;;;6.86
77223;BMP280;66218;48.928;9.140;2023-02-01T01:33:53;99102.59;;;7.02
77223;BMP280;66218;48.928;9.140;2023-02-01T01:36:19;99102.59;;;7.02
77223;BMP280;66218;48.928;9.140;2023-02-01T01:38:45;99094.66;;;6.95
77223;BMP280;66218;48.928;9.140;2023-02-01T01:41:15;99097.72;;;7.01
77223;BMP280;66218;48.928;9.140;2023-02-01T01:43:47;99100.06;;;7.06
77223;BMP280;66218;48.928;9.140;2023-02-01T01:46:30;99099.50;;;7.08
77223;BMP280;66218;48.928;9.140;2023-02-01T01:49:22;99100.31;;;7.11
77223;BMP280;66218;48.928;9.140;2023-02-01T01:51:49;99091.78;;;7.18
77223;BMP280;66218;48.928;9.140;2023-02-01T01:54:32;99093.00;;;7.29
77223;BMP280;66218;48.928;9.140;2023-02-01T01:57:03;99093.00;;;7.29
77223;BMP280;66218;48.928;9.140;2023-02-01T01:59:31;99106.75;;;7.29
77223;BMP280;66218;48.928;9.140;2023-02-01T02:01:57;99106.75;;;7.29
77223;BMP280;66218;48.928;9.140;2023-02-01T02:04:23;99098.22;;;7.23
77223;BMP280;66218;48.928;9.140;2023-02-01T02:07:08;99096.84;;;7.24
77223;BMP280;66218;48.928;9.140;2023-02-01T02:09:34;99085.69;;;7.20
77223;BMP280;66218;48.928;9.140;2023-02-01T02:12:00;99092.16;;;7.13
77223;BMP280;66218;48.928;9.140;2023-02-01T02:14:26;99090.22;;;7.15
77223;BMP280;66218;48.928;9.140;2023-02-01T02:19:42;99083.94;;;7.13
77223;BMP280;66218;48.928;9.140;2023-02-01T02:28:39;99077.84;;;7.14
77223;BMP280;66218;48.928;9.140;2023-02-01T02:40:15;99077.44;;;7.20
77223;BMP280;66218;48.928;9.140;2023-02-01T02:42:51;99083.13;;;7.24
77223;BMP280;66218;48.928;9.140;2023-02-01T02:45:42;99075.13;;;7.28
77223;BMP280;66218;48.928;9.140;2023-02-01T02:48:55;99075.13;;;7.28
77223;BMP280;66218;48.928;9.140;2023-02-01T02:51:55;99074.13;;;7.21
77223;BMP280;66218;48.928;9.140;2023-02-01T02:54:45;99076.97;;;7.23
77223;BMP280;66218;48.928;9.140;2023-02-01T02:57:19;99070.84;;;7.25
77223;BMP280;66218;48.928;9.140;2023-02-01T03:00:06;99066.78;;;7.26
77223;BMP280;66218;48.928;9.140;2023-02-01T03:02:52;99066.78;;;7.26
77223;BMP280;66218;48.928;9.140;2023-02-01T03:05:40;99066.78;;;7.26
77223;BMP280;66218;48.928;9.140;2023-02-01T03:08:14;99061.19;;;7.24
77223;BMP280;66218;48.928;9.140;2023-02-01T03:13:18;99048.09;;;7.22
77223;BMP280;66218;48.928;9.140;2023-02-01T03:15:51;99027.25;;;7.17
77223;BMP280;66218;48.928;9.140;2023-02-01T03:18:27;99027.25;;;7.17
77223;BMP280;66218;48.928;9.140;2023-02-01T03:20:55;99014.53;;;7.10
77223;BMP280;66218;48.928;9.140;2023-02-01T03:23:22;99005.34;;;7.05
77223;BMP280;66218;48.928;9.140;2023-02-01T03:25:51;99007.38;;;7.05
77223;BMP280;66218;48.928;9.140;2023-02-01T03:28:18;99011.84;;;6.98
77223;BMP280;66218;48.928;9.140;2023-02-01T03:30:47;99012.38;;;6.95
77223;BMP280;66218;48.928;9.140;2023-02-01T03:33:18;99000.78;;;6.96
77223;BMP280;66218;48.928;9.140;2023-02-01T03:41:40;99003.53;;;6.96
77223;BMP280;66218;48.928;9.140;2023-02-01T03:46:41;99007.16;;;7.01
77223;BMP280;66218;48.928;9.140;2023-02-01T03:49:11;99016.13;;;7.01
77223;BMP280;66218;48.928;9.140;2023-02-01T03:51:40;99020.63;;;7.08
77223;BMP280;66218;48.928;9.140;2023-02-01T03:54:07;99020.63;;;7.08
77223;BMP280;66218;48.928;9.140;2023-02-01T03:56:36;99015.00;;;7.06
77223;BMP280;66218;48.928;9.140;2023-02-01T03:59:02;99018.06;;;7.13
77223;BMP280;66218;48.928;9.140;2023-02-01T04:01:29;99018.06;;;7.13
77223;BMP280;66218;48.928;9.140;2023-02-01T04:03:55;99013.09;;;7.09
77223;BMP280;66218;48.928;9.140;2023-02-01T04:06:21;98998.78;;;7.11
77223;BMP280;66218;48.928;9.140;2023-02-01T04:08:46;98995.72;;;7.04
77223;BMP280;66218;48.928;9.140;2023-02-01T04:11:12;98989.28;;;7.00
77223;BMP280;66218;48.928;9.140;2023-02-01T04:13:37;98982.28;;;6.97
77223;BMP280;66218;48.928;9.140;2023-02-01T04:16:03;98984.59;;;7.02
77223;BMP280;66218;48.928;9.140;2023-02-01T04:18:28;98981.38;;;7.06
77223;BMP280;66218;48.928;9.140;2023-02-01T04:20:53;98989.03;;;7.07
77223;BMP280;66218;48.928;9.140;2023-02-01T04:23:19;98989.22;;;7.12
77223;BMP280;66218;48.928;9.140;2023-02-01T04:25:45;98988.31;;;7.21
77223;BMP280;66218;48.928;9.140;2023-02-01T04:28:10;98998.25;;;7.14
77223;BMP280;66218;48.928;9.140;2023-02-01T04:30:36;98997.75;;;7.18
77223;BMP280;66218;48.928;9.140;2023-02-01T04:33:01;99011.00;;;7.21
77223;BMP280;66218;48.928;9.140;2023-02-01T04:35:30;99009.66;;;7.36
77223;BMP280;66218;48.928;9.140;2023-02-01T04:37:55;99015.25;;;7.38
77223;BMP280;66218;48.928;9.140;2023-02-01T04:40:21;99003.66;;;7.26
77223;BMP280;66218;48.928;9.140;2023-02-01T04:42:46;99003.53;;;7.38
77223;BMP280;66218;48.928;9.140;2023-02-01T04:45:11;99006.81;;;7.48
77223;BMP280;66218;48.928;9.140;2023-02-01T04:47:37;99006.81;;;7.48
77223;BMP280;66218;48.928;9.140;2023-02-01T04:50:02;98994.09;;;7.41
77223;BMP280;66218;48.928;9.140;2023-02-01T04:52:28;98962.38;;;7.24
77223;BMP280;66218;48.928;9.140;2023-02-01T04:54:53;98972.94;;;7.16
77223;BMP280;66218;48.928;9.140;2023-02-01T04:57:22;98980.16;;;7.09
77223;BMP280;66218;48.928;9.140;2023-02-01T04:59:47;98984.25;;;7.08
77223;BMP280;66218;48.928;9.140;2023-02-01T05:02:13;98984.25;;;7.08
77223;BMP280;66218;48.928;9.140;2023-02-01T05:04:38;98979.34;;;7.06
77223;BMP280;66218;48.928;9.140;2023-02-01T05:07:03;98980.28;;;7.11
77223;BMP280;66218;48.928;9.140;2023-02-01T05:09:28;98987.91;;;7.26
77223;BMP280;66218;48.928;9.140;2023-02-01T05:11:54;98987.91;;;7.26
77223;BMP280;66218;48.928;9.140;2023-02-01T05:14:37;98987.50;;;7.32
77223;BMP280;66218;48.928;9.140;2023-02-01T05:17:03;98987.50;;;7.32
77223;BMP280;66218;48.928;9.140;2023-02-01T05:19:28;99007.75;;;7.39
77223;BMP280;66218;48.928;9.140;2023-02-01T05:21:53;99007.75;;;7.39
77223;BMP280;66218;48.928;9.140;2023-02-01T05:24:18;98981.56;;;7.24
77223;BMP280;66218;48.928;9.140;2023-02-01T05:26:47;98986.88;;;7.20
77223;BMP280;66218;48.928;9.140;2023-02-01T05:29:14;98971.84;;;7.21
77223;BMP280;66218;48.928;9.140;2023-02-01T05:31:40;98970.19;;;7.16
77223;BMP280;66218;48.928;9.140;2023-02-01T05:34:06;98964.91;;;7.20
77223;BMP280;66218;48.928;9.140;2023-02-01T05:36:32;98964.69;;;7.16
77223;BMP280;66218;48.928;9.140;2023-02-01T05:38:58;98968.78;;;7.15
77223;BMP280;66218;48.928;9.140;2023-02-01T05:41:23;98978.53;;;7.18
77223;BMP280;66218;48.928;9.140;2023-02-01T05:43:49;98979.88;;;7.17
77223;BMP280;66218;48.928;9.140;2023-02-01T05:46:15;98977.72;;;7.15
77223;BMP280;66218;48.928;9.140;2023-02-01T05:48:41;99001.13;;;7.16
77223;BMP280;66218;48.928;9.140;2023-02-01T05:51:07;99001.13;;;7.16
77223;BMP280;66218;48.928;9.140;2023-02-01T05:53:32;98993.78;;;7.07
77223;BMP280;66218;48.928;9.140;2023-02-01T05:55:58;98991.63;;;7.05
77223;BMP280;66218;48.928;9.140;2023-02-01T05:58:23;99023.84;;;7.05
77223;BMP280;66218;48.928;9.140;2023-02-01T06:00:49;99023.84;;;7.05
77223;BMP280;66218;48.928;9.140;2023-02-01T06:03:14;99027.31;;;7.05
77223;BMP280;66218;48.928;9.140;2023-02-01T06:05:39;99021.44;;;7.11
77223;BMP280;66218;48.928;9.140;2023-02-01T06:08:05;99028.50;;;7.02
77223;BMP280;66218;48.928;9.140;2023-02-01T06:10:32;99030.88;;;7.08
77223;BMP280;66218;48.928;9.140;2023-02-01T06:12:58;99022.72;;;6.96
77223;BMP280;66218;48.928;9.140;2023-02-01T06:15:23;99022.72;;;6.96
77223;BMP280;66218;48.928;9.140;2023-02-01T06:17:48;99014.59;;;6.98
77223;BMP280;66218;48.928;9.140;2023-02-01T06:20:14;99028.94;;;6.97
77223;BMP280;66218;48.928;9.140;2023-02-01T06:22:40;99022.81;;;6.98
77223;BMP280;66218;48.928;9.140;2023-02-01T06:25:07;99033.00;;;6.96
77223;BMP280;66218;48.928;9.140;2023-02-01T06:27:33;99028.81;;;6.95
77223;BMP280;66218;48.928;9.140;2023-02-01T06:29:59;99038.25;;;6.92
77223;BMP280;66218;48.928;9.140;2023-02-01T06:32:25;99021.31;;;6.95
77223;BMP280;66218;48.928;9.140;2023-02-01T06:36:16;99003.81;;;7.02
77223;BMP280;66218;48.928;9.140;2023-02-01T06:38:43;99019.56;;;7.02
77223;BMP280;66218;48.928;9.140;2023-02-01T06:41:09;99019.56;;;7.02
77223;BMP280;66218;48.928;9.140;2023-02-01T06:43:34;99025.06;;;7.02
77223;BMP280;66218;48.928;9.140;2023-02-01T06:46:05;99026.81;;;7.09
77223;BMP280;66218;48.928;9.140;2023-02-01T06:48:31;99026.81;;;7.09
77223;BMP280;66218;48.928;9.140;2023-02-01T06:50:57;99022.66;;;7.08
77223;BMP280;66218;48.928;9.140;2023-02-01T06:53:22;99024.06;;;7.09
77223;BMP280;66218;48.928;9.140;2023-02-01T06:55:54;99035.06;;;7.09
77223;BMP280;66218;48.928;9.140;2023-02-01T06:58:20;99048.06;;;7.08
77223;BMP280;66218;48.928;9.140;2023-02-01T07:00:46;99049.38;;;7.07
77223;BMP280;66218;48.928;9.140;2023-02-01T07:03:11;99048.31;;;7.01
77223;BMP280;66218;48.928;9.140;2023-02-01T07:05:36;99056.63;;;6.89
77223;BMP280;66218;48.928;9.140;2023-02-01T07:08:01;99057.56;;;6.94
77223;BMP280;66218;48.928;9.140;2023-02-01T07:10:27;99068.53;;;6.94
77223;BMP280;66218;48.928;9.140;2023-02-01T07:12:56;99078.56;;;6.89
77223;BMP280;66218;48.928;9.140;2023-02-01T07:15:21;99086.78;;;6.89
77223;BMP280;66218;48.928;9.140;2023-02-01T07:17:47;99071.34;;;6.82
77223;BMP280;66218;48.928;9.140;2023-02-01T07:20:14;99063.84;;;6.83
77223;BMP280;66218;48.928;9.140;2023-02-01T07:22:39;99077.66;;;6.85
77223;BMP280;66218;48.928;9.140;2023-02-01T07:25:05;99073.28;;;6.68
77223;BMP280;66218;48.928;9.140;2023-02-01T07:27:30;99076.75;;;6.68
77223;BMP280;66218;48.928;9.140;2023-02-01T07:29:58;99077.19;;;6.76
77223;BMP280;66218;48.928;9.140;2023-02-01T07:32:27;99093.34;;;6.70
77223;BMP280;66218;48.928;9.140;2023-02-01T07:34:52;99087.41;;;6.50
77223;BMP280;66218;48.928;9.140;2023-02-01T07:37:17;99087.41;;;6.50
77223;BMP280;66218;48.928;9.140;2023-02-01T07:39:43;99076.44;;;6.50
77223;BMP280;66218;48.928;9.140;2023-02-01T07:42:08;99087.88;;;6.59
77223;BMP280;66218;48.928;9.140;2023-02-01T07:44:34;99086.66;;;6.62
77223;BMP280;66218;48.928;9.140;2023-02-01T07:46:59;99081.75;;;6.72
77223;BMP280;66218;48.928;9.140;2023-02-01T07:49:24;99078.50;;;6.75
77223;BMP280;66218;48.928;9.140;2023-02-01T07:51:50;99071.84;;;6.78
77223;BMP280;66218;48.928;9.140;2023-02-01T07:54:16;99072.28;;;6.87
77223;BMP280;66218;48.928;9.140;2023-02-01T07:56:41;99081.19;;;6.87
77223;BMP280;66218;48.928;9.140;2023-02-01T07:59:06;99081.19;;;6.87
77223;BMP280;66218;48.928;9.140;2023-02-01T08:01:33;99071.69;;;7.02
77223;BMP280;66218;48.928;9.140;2023-02-01T08:04:02;99057.31;;;7.15
77223;BMP280;66218;48.928;9.140;2023-02-01T08:06:30;99055.91;;;7.28
77223;BMP280;66218;48.928;9.140;2023-02-01T08:08:56;99060.72;;;7.41
77223;BMP280;66218;48.928;9.140;2023-02-01T08:11:23;99052.59;;;7.43
77223;BMP280;66218;48.928;9.140;2023-02-01T08:13:49;99070.69;;;7.48
77223;BMP280;66218;48.928;9.140;2023-02-01T08:16:16;99055.53;;;7.61
77223;BMP280;66218;48.928;9.140;2023-02-01T08:18:42;99059.44;;;7.70
77223;BMP280;66218;48.928;9.140;2023-02-01T08:21:15;99050.97;;;7.79
77223;BMP280;66218;48.928;9.140;2023-02-01T08:23:42;99072.53;;;7.99
77223;BMP280;66218;48.928;9.140;2023-02-01T08:28:34;99086.53;;;8.18
77223;BMP280;66218;48.928;9.140;2023-02-01T08:31:04;99091.25;;;8.02
77223;BMP280;66218;48.928;9.140;2023-02-01T08:33:29;99091.44;;;8.20
77223;BMP280;66218;48.928;9.140;2023-02-01T08:35:55;99092.44;;;8.27
77223;BMP280;66218;48.928;9.140;2023-02-01T08:38:20;99087.59;;;8.11
77223;BMP280;66218;48.928;9.140;2023-02-01T08:40:45;99095.22;;;8.13
77223;BMP280;66218;48.928;9.140;2023-02-01T08:43:11;99108.66;;;8.07
77223;BMP280;66218;48.928;9.140;2023-02-01T08:45:36;99115.66;;;8.10
77223;BMP280;66218;48.928;9.140;2023-02-01T08:48:02;99114.47;;;8.13
77223;BMP280;66218;48.928;9.140;2023-02-01T08:50:27;99105.09;;;8.04
77223;BMP280;66218;48.928;9.140;2023-02-01T08:52:53;99108.97;;;7.99
77223;BMP280;66218;48.928;9.140;2023-02-01T08:55:18;99112.84;;;7.94
77223;BMP280;66218;48.928;9.140;2023-02-01T08:57:44;99117.31;;;7.87
77223;BMP280;66218;48.928;9.140;2023-02-01T09:00:15;99128.41;;;8.03
77223;BMP280;66218;48.928;9.140;2023-02-01T09:02:40;99126.03;;;7.84
77223;BMP280;66218;48.928;9.140;2023-02-01T09:05:06;99118.84;;;7.90
77223;BMP280;66218;48.928;9.140;2023-02-01T09:07:33;99130.13;;;7.97
77223;BMP280;66218;48.928;9.140;2023-02-01T09:09:58;99134.72;;;7.92
77223;BMP280;66218;48.928;9.140;2023-02-01T09:12:27;99129.63;;;7.86
77223;BMP280;66218;48.928;9.140;2023-02-01T09:14:52;99132.56;;;8.04
77223;BMP280;66218;48.928;9.140;2023-02-01T09:17:17;99131.22;;;8.19
77223;BMP280;66218;48.928;9.140;2023-02-01T09:19:43;99131.03;;;8.42
77223;BMP280;66218;48.928;9.140;2023-02-01T09:22:08;99128.13;;;8.84
77223;BMP280;66218;48.928;9.140;2023-02-01T09:24:33;99132.84;;;8.81
77223;BMP280;66218;48.928;9.140;2023-02-01T09:26:58;99127.78;;;8.62
77223;BMP280;66218;48.928;9.140;2023-02-01T09:29:24;99132.09;;;8.65
77223;BMP280;66218;48.928;9.140;2023-02-01T09:31:49;99127.47;;;8.69
77223;BMP280;66218;48.928;9.140;2023-02-01T09:34:15;99130.16;;;8.54
77223;BMP280;66218;48.928;9.140;2023-02-01T09:36:40;99132.59;;;8.61
77223;BMP280;66218;48.928;9.140;2023-02-01T09:39:05;99134.91;;;8.67
77223;BMP280;66218;48.928;9.140;2023-02-01T09:44:25;99148.88;;;9.00
77223;BMP280;66218;48.928;9.140;2023-02-01T09:46:57;99149.78;;;9.05
77223;BMP280;66218;48.928;9.140;2023-02-01T09:49:36;99150.94;;;9.16
77223;BMP280;66218;48.928;9.140;2023-02-01T09:52:08;99151.13;;;9.20
77223;BMP280;66218;48.928;9.140;2023-02-01T09:54:47;99145.22;;;9.41
77223;BMP280;66218;48.928;9.140;2023-02-01T09:57:18;99126.28;;;9.49
77223;BMP280;66218;48.928;9.140;2023-02-01T10:00:17;99141.53;;;9.21
77223;BMP280;66218;48.928;9.140;2023-02-01T10:02:44;99148.25;;;9.18
77223;BMP280;66218;48.928;9.140;2023-02-01T10:05:15;99151.28;;;9.08
77223;BMP280;66218;48.928;9.140;2023-02-01T10:08:11;99146.78;;;9.15
77223;BMP280;66218;48.928;9.140;2023-02-01T10:10:44;99151.66;;;9.16
77223;BMP280;66218;48.928;9.140;2023-02-01T10:16:06;99168.22;;;9.32
77223;BMP280;66218;48.928;9.140;2023-02-01T10:18:44;99180.97;;;9.25
77223;BMP280;66218;48.928;9.140;2023-02-01T10:21:40;99180.25;;;9.25
77223;BMP280;66218;48.928;9.140;2023-02-01T10:26:45;99200.00;;;9.35
77223;BMP280;66218;48.928;9.140;2023-02-01T10:29:19;99195.56;;;8.98
77223;BMP280;66218;48.928;9.140;2023-02-01T10:31:45;99192.88;;;8.85
77223;BMP280;66218;48.928;9.140;2023-02-01T10:34:23;99186.50;;;8.53
77223;BMP280;66218;48.928;9.140;2023-02-01T10:37:01;99187.94;;;8.54
77223;BMP280;66218;48.928;9.140;2023-02-01T10:39:29;99179.38;;;8.48
77223;BMP280;66218;48.928;9.140;2023-02-01T10:41:55;99184.38;;;8.51
77223;BMP280;66218;48.928;9.140;2023-02-01T10:44:24;99196.09;;;8.38
77223;BMP280;66218;48.928;9.140;2023-02-01T10:46:51;99180.63;;;8.17
77223;BMP280;66218;48.928;9.140;2023-02-01T10:49:26;99168.41;;;8.34
77223;BMP280;66218;48.928;9.140;2023-02-01T10:52:00;99175.34;;;8.35
77223;BMP280;66218;48.928;9.140;2023-02-01T10:54:36;99183.50;;;8.33
77223;BMP280;66218;48.928;9.140;2023-02-01T10:57:07;99183.22;;;8.56
77223;BMP280;66218;48.928;9.140;2023-02-01T10:59:33;99177.31;;;8.62
77223;BMP280;66218;48.928;9.140;2023-02-01T11:02:13;99175.25;;;8.76
77223;BMP280;66218;48.928;9.140;2023-02-01T11:04:40;99171.84;;;8.48
77223;BMP280;66218;48.928;9.140;2023-02-01T11:07:24;99166.22;;;8.60
77223;BMP280;66218;48.928;9.140;2023-02-01T11:09:51;99158.69;;;8.46
77223;BMP280;66218;48.928;9.140;2023-02-01T11:12:34;99156.75;;;8.49
77223;BMP280;66218;48.928;9.140;2023-02-01T11:15:14;99162.72;;;8.73
77223;BMP280;66218;48.928;9.140;2023-02-01T11:17:45;99148.06;;;8.98
77223;BMP280;66218;48.928;9.140;2023-02-01T11:22:59;99142.69;;;8.86
77223;BMP280;66218;48.928;9.140;2023-02-01T11:25:25;99137.78;;;9.14
77223;BMP280;66218;48.928;9.140;2023-02-01T11:27:53;99118.81;;;9.20
77223;BMP280;66218;48.928;9.140;2023-02-01T11:30:31;99117.56;;;9.23
77223;BMP280;66218;48.928;9.140;2023-02-01T11:32:57;99127.69;;;9.19
77223;BMP280;66218;48.928;9.140;2023-02-01T11:35:23;99107.28;;;9.24
77223;BMP280;66218;48.928;9.140;2023-02-01T11:37:55;99114.09;;;9.23
77223;BMP280;66218;48.928;9.140;2023-02-01T11:40:37;99102.59;;;9.44
77223;BMP280;66218;48.928;9.140;2023-02-01T11:45:54;99075.53;;;9.54
77223;BMP280;66218;48.928;9.140;2023-02-01T11:48:20;99095.69;;;9.75
77223;BMP280;66218;48.928;9.140;2023-02-01T11:50:57;99093.50;;;10.05
77223;BMP280;66218;48.928;9.140;2023-02-01T12:04:36;99074.31;;;9.42
77223;BMP280;66218;48.928;9.140;2023-02-01T12:07:16;99072.88;;;9.25
77223;BMP280;66218;48.928;9.140;2023-02-01T12:23:57;99069.28;;;8.91
77223;BMP280;66218;48.928;9.140;2023-02-01T12:26:42;99075.16;;;8.99
77223;BMP280;66218;48.928;9.140;2023-02-01T12:29:18;99067.47;;;9.11
77223;BMP280;66218;48.928;9.140;2023-02-01T12:40:00;99076.88;;;9.22
77223;BMP280;66218;48.928;9.140;2023-02-01T12:42:47;99085.59;;;9.32
77223;BMP280;66218;48.928;9.140;2023-02-01T12:47:49;99086.53;;;9.23
77223;BMP280;66218;48.928;9.140;2023-02-01T12:50:24;99098.09;;;9.19
77223;BMP280;66218;48.928;9.140;2023-02-01T12:52:53;99086.13;;;9.28
77223;BMP280;66218;48.928;9.140;2023-02-01T12:55:24;99086.53;;;9.23
77223;BMP280;66218;48.928;9.140;2023-02-01T12:57:56;99058.94;;;9.21
77223;BMP280;66218;48.928;9.140;2023-02-01T13:00:36;99077.34;;;9.66
77223;BMP280;66218;48.928;9.140;2023-02-01T13:03:29;99067.34;;;9.56
77223;BMP280;66218;48.928;9.140;2023-02-01T13:06:05;99060.97;;;9.20
77223;BMP280;66218;48.928;9.140;2023-02-01T13:16:28;99069.91;;;8.89
77223;BMP280;66218;48.928;9.140;2023-02-01T13:19:18;99069.69;;;9.15
77223;BMP280;66218;48.928;9.140;2023-02-01T13:21:52;99062.31;;;9.19
77223;BMP280;66218;48.928;9.140;2023-02-01T13:26:55;99059.19;;;9.11
77223;BMP280;66218;48.928;9.140;2023-02-01T13:29:22;99057.06;;;9.41
77223;BMP280;66218;48.928;9.140;2023-02-01T13:45:17;99030.03;;;9.38
77223;BMP280;66218;48.928;9.140;2023-02-01T13:47:47;99027.06;;;9.32
77223;BMP280;66218;48.928;9.140;2023-02-01T13:52:44;99009.13;;;9.48
77223;BMP280;66218;48.928;9.140;2023-02-01T13:57:48;99016.88;;;9.52
77223;BMP280;66218;48.928;9.140;2023-02-01T14:00:34;99005.22;;;9.53
77223;BMP280;66218;48.928;9.140;2023-02-01T14:10:48;99023.13;;;9.37
77223;BMP280;66218;48.928;9.140;2023-02-01T14:23:53;99025.75;;;8.56
77223;BMP280;66218;48.928;9.140;2023-02-01T14:26:23;99029.06;;;8.38
77223;BMP280;66218;48.928;9.140;2023-02-01T14:29:00;99045.31;;;8.48
77223;BMP280;66218;48.928;9.140;2023-02-01T14:31:33;99058.59;;;8.38
77223;BMP280;66218;48.928;9.140;2023-02-01T14:34:01;99051.72;;;8.53
77223;BMP280;66218;48.928;9.140;2023-02-01T14:36:58;99047.75;;;8.56
77223;BMP280;66218;48.928;9.140;2023-02-01T14:39:29;99043.25;;;8.78
77223;BMP280;66218;48.928;9.140;2023-02-01T14:41:59;99062.25;;;8.72
77223;BMP280;66218;48.928;9.140;2023-02-01T14:44:27;99053.06;;;8.52
77223;BMP280;66218;48.928;9.140;2023-02-01T14:50:10;99048.38;;;8.54
77223;BMP280;66218;48.928;9.140;2023-02-01T14:52:39;99055.31;;;8.55
77223;BMP280;66218;48.928;9.140;2023-02-01T14:55:19;99051.31;;;8.29
77223;BMP280;66218;48.928;9.140;2023-02-01T14:57:48;99058.66;;;8.24
77223;BMP280;66218;48.928;9.140;2023-02-01T15:00:20;99054.25;;;8.33
77223;BMP280;66218;48.928;9.140;2023-02-01T15:02:47;99040.31;;;8.29
77223;BMP280;66218;48.928;9.140;2023-02-01T15:05:23;99044.00;;;8.20
77223;BMP280;66218;48.928;9.140;2023-02-01T15:07:50;99044.00;;;8.20
77223;BMP280;66218;48.928;9.140;2023-02-01T15:10:17;99027.72;;;8.10
77223;BMP280;66218;48.928;9.140;2023-02-01T15:12:44;99038.50;;;8.06
77223;BMP280;66218;48.928;9.140;2023-02-01T15:15:19;99024.72;;;7.90
77223;BMP280;66218;48.928;9.140;2023-02-01T15:20:18;99035.59;;;7.88
77223;BMP280;66218;48.928;9.140;2023-02-01T15:23:16;99044.06;;;7.78
77223;BMP280;66218;48.928;9.140;2023-02-01T15:25:45;99052.00;;;7.72
77223;BMP280;66218;48.928;9.140;2023-02-01T15:28:13;99053.41;;;7.73
77223;BMP280;66218;48.928;9.140;2023-02-01T15:30:39;99042.44;;;7.73
77223;BMP280;66218;48.928;9.140;2023-02-01T15:35:43;99040.19;;;7.70
77223;BMP280;66218;48.928;9.140;2023-02-01T15:38:39;99043.56;;;7.68
77223;BMP280;66218;48.928;9.140;2023-02-01T15:41:09;99046.09;;;7.64
77223;BMP280;66218;48.928;9.140;2023-02-01T15:46:22;99059.44;;;7.70
77223;BMP280;66218;48.928;9.140;2023-02-01T15:48:51;99065.09;;;7.74
77223;BMP280;66218;48.928;9.140;2023-02-01T15:51:20;99061.38;;;7.81
77223;BMP280;66218;48.928;9.140;2023-02-01T15:53:49;99061.38;;;7.81
77223;BMP280;66218;48.928;9.140;2023-02-01T15:56:15;99068.66;;;7.76
77223;BMP280;66218;48.928;9.140;2023-02-01T15:58:43;99064.09;;;7.67
77223;BMP280;66218;48.928;9.140;2023-02-01T16:01:12;99069.88;;;7.73
77223;BMP280;66218;48.928;9.140;2023-02-01T16:03:45;99077.63;;;7.77
77223;BMP280;66218;48.928;9.140;2023-02-01T16:09:11;99066.25;;;7.69
77223;BMP280;66218;48.928;9.140;2023-02-01T16:11:56;99078.13;;;7.59
77223;BMP280;66218;48.928;9.140;2023-02-01T16:14:23;99056.78;;;7.58
77223;BMP280;66218;48.928;9.140;2023-02-01T16:16:49;99072.72;;;7.61
77223;BMP280;66218;48.928;9.140;2023-02-01T16:19:14;99073.03;;;7.68
77223;BMP280;66218;48.928;9.140;2023-02-01T16:21:39;99073.03;;;7.68
77223;BMP280;66218;48.928;9.140;2023-02-01T16:24:05;99075.47;;;7.61
77223;BMP280;66218;48.928;9.140;2023-02-01T16:26:31;99077.94;;;7.69
77223;BMP280;66218;48.928;9.140;2023-02-01T16:28:58;99078.53;;;7.68
77223;BMP280;66218;48.928;9.140;2023-02-01T16:31:29;99066.34;;;7.57
77223;BMP280;66218;48.928;9.140;2023-02-01T16:33:56;99084.22;;;7.58
77223;BMP280;66218;48.928;9.140;2023-02-01T16:36:21;99080.97;;;7.61
77223;BMP280;66218;48.928;9.140;2023-02-01T16:38:47;99080.97;;;7.61
77223;BMP280;66218;48.928;9.140;2023-02-01T16:41:16;99077.81;;;7.53
77223;BMP280;66218;48.928;9.140;2023-02-01T16:43:42;99069.88;;;7.46
77223;BMP280;66218;48.928;9.140;2023-02-01T16:46:17;99076.47;;;7.41
77223;BMP280;66218;48.928;9.140;2023-02-01T16:48:48;99084.28;;;7.32
77223;BMP280;66218;48.928;9.140;2023-02-01T16:51:16;99084.28;;;7.32
77223;BMP280;66218;48.928;9.140;2023-02-01T16:53:43;99076.97;;;7.23
77223;BMP280;66218;48.928;9.140;2023-02-01T16:58:39;99084.56;;;7.11
77223;BMP280;66218;48.928;9.140;2023-02-01T17:01:08;99088.72;;;7.12